sensor_id;sensor_type;location;lat;lon;timestamp;temperature;humidity
12708;DHT22;6418;50.824;4.718;2022-09-02T00:02:13;17.50;99.90
12708;DHT22;6418;50.824;4.718;2022-09-02T00:04:42;17.50;99.90
12708;DHT22;6418;50.824;4.718;2022-09-02T00:07:11;17.50;99.90
12708;DHT22;6418;50.824;4.718;2022-09-02T00:09:38;17.50;99.90
12708;DHT22;6418;50.824;4.718;2022-09-02T00:12:06;17.50;99.90
12708;DHT22;6418;50.824;4.718;2022-09-02T00:14:36;17.50;99.90
12708;DHT22;6418;50.824;4.718;2022-09-02T00:17:04;17.40;99.90
12708;DHT22;6418;50.824;4.718;2022-09-02T00:19:31;17.40;99.90
12708;DHT22;6418;50.824;4.718;2022-09-02T00:21:59;17.40;99.90
12708;DHT22;6418;50.824;4.718;2022-09-02T00:24:28;17.50;99.90
12708;DHT22;6418;50.824;4.718;2022-09-02T00:26:55;17.40;99.90
12708;DHT22;6418;50.824;4.718;2022-09-02T00:29:22;17.40;99.90
12708;DHT22;6418;50.824;4.718;2022-09-02T00:31:49;17.40;99.90
12708;DHT22;6418;50.824;4.718;2022-09-02T00:34:16;17.40;99.90
12708;DHT22;6418;50.824;4.718;2022-09-02T00:36:43;17.40;99.90
12708;DHT22;6418;50.824;4.718;2022-09-02T00:39:10;17.40;99.90
12708;DHT22;6418;50.824;4.718;2022-09-02T00:41:41;17.40;99.90
12708;DHT22;6418;50.824;4.718;2022-09-02T00:44:10;17.40;99.90
12708;DHT22;6418;50.824;4.718;2022-09-02T00:46:38;17.40;99.90
12708;DHT22;6418;50.824;4.718;2022-09-02T00:49:07;17.40;99.90
12708;DHT22;6418;50.824;4.718;2022-09-02T00:51:40;17.40;99.90
12708;DHT22;6418;50.824;4.718;2022-09-02T00:54:09;17.40;99.90
12708;DHT22;6418;50.824;4.718;2022-09-02T00:56:39;17.30;99.90
12708;DHT22;6418;50.824;4.718;2022-09-02T00:59:09;17.40;99.90
12708;DHT22;6418;50.824;4.718;2022-09-02T01:01:38;17.30;99.90
12708;DHT22;6418;50.824;4.718;2022-09-02T01:04:05;17.30;99.90
12708;DHT22;6418;50.824;4.718;2022-09-02T01:06:32;17.30;99.90
12708;DHT22;6418;50.824;4.718;2022-09-02T01:09:04;17.30;99.90
12708;DHT22;6418;50.824;4.718;2022-09-02T01:11:39;17.30;99.90
12708;DHT22;6418;50.824;4.718;2022-09-02T01:14:07;17.30;99.90
12708;DHT22;6418;50.824;4.718;2022-09-02T01:16:39;17.30;99.90
12708;DHT22;6418;50.824;4.718;2022-09-02T01:19:13;17.30;99.90
12708;DHT22;6418;50.824;4.718;2022-09-02T01:21:46;17.30;99.90
12708;DHT22;6418;50.824;4.718;2022-09-02T01:24:14;17.30;99.90
12708;DHT22;6418;50.824;4.718;2022-09-02T01:26:41;17.20;99.90
12708;DHT22;6418;50.824;4.718;2022-09-02T01:29:08;17.20;99.90
12708;DHT22;6418;50.824;4.718;2022-09-02T01:31:35;17.30;99.90
12708;DHT22;6418;50.824;4.718;2022-09-02T01:34:03;17.20;99.90
12708;DHT22;6418;50.824;4.718;2022-09-02T01:36:31;17.20;99.90
12708;DHT22;6418;50.824;4.718;2022-09-02T01:38:59;17.20;99.90
12708;DHT22;6418;50.824;4.718;2022-09-02T01:41:26;17.30;99.90
12708;DHT22;6418;50.824;4.718;2022-09-02T01:43:53;17.20;99.90
12708;DHT22;6418;50.824;4.718;2022-09-02T01:46:20;17.20;99.90
12708;DHT22;6418;50.824;4.718;2022-09-02T01:48:48;17.20;99.90
12708;DHT22;6418;50.824;4.718;2022-09-02T01:51:17;17.20;99.90
12708;DHT22;6418;50.824;4.718;2022-09-02T01:53:46;17.20;99.90
12708;DHT22;6418;50.824;4.718;2022-09-02T01:56:15;17.20;99.90
12708;DHT22;6418;50.824;4.718;2022-09-02T01:58:42;17.20;99.90
12708;DHT22;6418;50.824;4.718;2022-09-02T02:01:09;17.20;99.90
12708;DHT22;6418;50.824;4.718;2022-09-02T02:03:38;17.20;99.90
12708;DHT22;6418;50.824;4.718;2022-09-02T02:06:08;17.20;99.90
12708;DHT22;6418;50.824;4.718;2022-09-02T02:08:36;17.20;99.90
12708;DHT22;6418;50.824;4.718;2022-09-02T02:11:04;17.20;99.90
12708;DHT22;6418;50.824;4.718;2022-09-02T02:13:33;17.20;99.90
12708;DHT22;6418;50.824;4.718;2022-09-02T02:16:00;17.10;99.90
12708;DHT22;6418;50.824;4.718;2022-09-02T02:18:28;17.10;99.90
12708;DHT22;6418;50.824;4.718;2022-09-02T02:20:55;17.10;99.90
12708;DHT22;6418;50.824;4.718;2022-09-02T02:23:22;17.00;99.90
12708;DHT22;6418;50.824;4.718;2022-09-02T02:25:49;17.00;99.90
12708;DHT22;6418;50.824;4.718;2022-09-02T02:28:16;17.00;99.90
12708;DHT22;6418;50.824;4.718;2022-09-02T02:30:45;17.10;99.90
12708;DHT22;6418;50.824;4.718;2022-09-02T02:33:12;17.00;99.90
12708;DHT22;6418;50.824;4.718;2022-09-02T02:35:39;17.00;99.90
12708;DHT22;6418;50.824;4.718;2022-09-02T02:38:06;16.90;99.90
12708;DHT22;6418;50.824;4.718;2022-09-02T02:40:34;16.90;99.90
12708;DHT22;6418;50.824;4.718;2022-09-02T02:43:02;16.80;99.90
12708;DHT22;6418;50.824;4.718;2022-09-02T02:45:29;16.80;99.90
12708;DHT22;6418;50.824;4.718;2022-09-02T02:47:57;16.80;99.90
12708;DHT22;6418;50.824;4.718;2022-09-02T02:50:24;16.80;99.90
12708;DHT22;6418;50.824;4.718;2022-09-02T02:52:52;16.80;99.90
12708;DHT22;6418;50.824;4.718;2022-09-02T02:55:20;16.70;99.90
12708;DHT22;6418;50.824;4.718;2022-09-02T02:57:47;16.70;99.90
12708;DHT22;6418;50.824;4.718;2022-09-02T03:00:17;16.70;99.90
12708;DHT22;6418;50.824;4.718;2022-09-02T03:02:44;16.70;99.90
12708;DHT22;6418;50.824;4.718;2022-09-02T03:05:13;16.70;99.90
12708;DHT22;6418;50.824;4.718;2022-09-02T03:07:41;16.70;99.90
12708;DHT22;6418;50.824;4.718;2022-09-02T03:10:12;16.60;99.90
12708;DHT22;6418;50.824;4.718;2022-09-02T03:12:40;16.70;99.90
12708;DHT22;6418;50.824;4.718;2022-09-02T03:15:13;16.60;99.90
12708;DHT22;6418;50.824;4.718;2022-09-02T03:17:41;16.60;99.90
12708;DHT22;6418;50.824;4.718;2022-09-02T03:20:09;16.60;99.90
12708;DHT22;6418;50.824;4.718;2022-09-02T03:22:37;16.60;99.90
12708;DHT22;6418;50.824;4.718;2022-09-02T03:25:06;16.60;99.90
12708;DHT22;6418;50.824;4.718;2022-09-02T03:27:36;16.60;99.90
12708;DHT22;6418;50.824;4.718;2022-09-02T03:30:04;16.60;99.90
12708;DHT22;6418;50.824;4.718;2022-09-02T03:32:32;16.60;99.90
12708;DHT22;6418;50.824;4.718;2022-09-02T03:35:00;16.60;99.90
12708;DHT22;6418;50.824;4.718;2022-09-02T03:37:27;16.60;99.90
12708;DHT22;6418;50.824;4.718;2022-09-02T03:39:56;16.60;99.90
12708;DHT22;6418;50.824;4.718;2022-09-02T03:42:23;16.60;99.90
12708;DHT22;6418;50.824;4.718;2022-09-02T03:44:49;16.60;99.90
12708;DHT22;6418;50.824;4.718;2022-09-02T03:47:16;16.60;99.90
12708;DHT22;6418;50.824;4.718;2022-09-02T03:49:48;16.60;99.90
12708;DHT22;6418;50.824;4.718;2022-09-02T03:52:15;16.60;99.90
12708;DHT22;6418;50.824;4.718;2022-09-02T03:54:42;16.60;99.90
12708;DHT22;6418;50.824;4.718;2022-09-02T03:57:10;16.60;99.90
12708;DHT22;6418;50.824;4.718;2022-09-02T03:59:37;16.60;99.90
12708;DHT22;6418;50.824;4.718;2022-09-02T04:02:04;16.70;99.90
12708;DHT22;6418;50.824;4.718;2022-09-02T04:04:31;16.70;99.90
12708;DHT22;6418;50.824;4.718;2022-09-02T04:06:59;16.70;99.90
12708;DHT22;6418;50.824;4.718;2022-09-02T04:09:26;16.70;99.90
12708;DHT22;6418;50.824;4.718;2022-09-02T04:11:53;16.80;99.90
12708;DHT22;6418;50.824;4.718;2022-09-02T04:14:21;16.80;99.90
12708;DHT22;6418;50.824;4.718;2022-09-02T04:16:48;16.80;99.90
12708;DHT22;6418;50.824;4.718;2022-09-02T04:19:15;16.80;99.90
12708;DHT22;6418;50.824;4.718;2022-09-02T04:21:42;16.90;99.90
12708;DHT22;6418;50.824;4.718;2022-09-02T04:24:11;16.90;99.90
12708;DHT22;6418;50.824;4.718;2022-09-02T04:26:39;16.90;99.90
12708;DHT22;6418;50.824;4.718;2022-09-02T04:29:06;16.90;99.90
12708;DHT22;6418;50.824;4.718;2022-09-02T04:31:35;17.00;99.90
12708;DHT22;6418;50.824;4.718;2022-09-02T04:34:02;17.00;99.90
12708;DHT22;6418;50.824;4.718;2022-09-02T04:36:29;17.00;99.90
12708;DHT22;6418;50.824;4.718;2022-09-02T04:38:57;17.00;99.90
12708;DHT22;6418;50.824;4.718;2022-09-02T04:41:26;17.10;99.90
12708;DHT22;6418;50.824;4.718;2022-09-02T04:43:55;17.10;99.90
12708;DHT22;6418;50.824;4.718;2022-09-02T04:46:22;17.10;99.90
12708;DHT22;6418;50.824;4.718;2022-09-02T04:48:51;17.10;99.90
12708;DHT22;6418;50.824;4.718;2022-09-02T04:51:19;17.10;99.90
12708;DHT22;6418;50.824;4.718;2022-09-02T04:53:50;17.10;99.90
12708;DHT22;6418;50.824;4.718;2022-09-02T04:56:20;17.10;99.90
12708;DHT22;6418;50.824;4.718;2022-09-02T04:58:48;17.10;99.90
12708;DHT22;6418;50.824;4.718;2022-09-02T05:01:19;17.10;99.90
12708;DHT22;6418;50.824;4.718;2022-09-02T05:03:47;17.10;99.90
12708;DHT22;6418;50.824;4.718;2022-09-02T05:06:17;17.00;99.90
12708;DHT22;6418;50.824;4.718;2022-09-02T05:08:46;17.00;99.90
12708;DHT22;6418;50.824;4.718;2022-09-02T05:11:15;17.00;99.90
12708;DHT22;6418;50.824;4.718;2022-09-02T05:13:44;17.00;99.90
12708;DHT22;6418;50.824;4.718;2022-09-02T05:16:15;17.00;99.90
12708;DHT22;6418;50.824;4.718;2022-09-02T05:18:42;16.90;99.90
12708;DHT22;6418;50.824;4.718;2022-09-02T05:21:09;16.90;99.90
12708;DHT22;6418;50.824;4.718;2022-09-02T05:23:37;16.90;99.90
12708;DHT22;6418;50.824;4.718;2022-09-02T05:26:05;16.80;99.90
12708;DHT22;6418;50.824;4.718;2022-09-02T05:28:32;16.80;99.90
12708;DHT22;6418;50.824;4.718;2022-09-02T05:31:02;16.70;99.90
12708;DHT22;6418;50.824;4.718;2022-09-02T05:33:31;16.70;99.90
12708;DHT22;6418;50.824;4.718;2022-09-02T05:35:58;16.70;99.90
12708;DHT22;6418;50.824;4.718;2022-09-02T05:38:25;16.60;99.90
12708;DHT22;6418;50.824;4.718;2022-09-02T05:40:53;16.60;99.90
12708;DHT22;6418;50.824;4.718;2022-09-02T05:43:20;16.60;99.90
12708;DHT22;6418;50.824;4.718;2022-09-02T05:45:48;16.50;99.90
12708;DHT22;6418;50.824;4.718;2022-09-02T05:48:15;16.50;99.90
12708;DHT22;6418;50.824;4.718;2022-09-02T05:51:03;16.50;99.90
12708;DHT22;6418;50.824;4.718;2022-09-02T05:53:30;16.50;99.90
12708;DHT22;6418;50.824;4.718;2022-09-02T05:56:02;16.50;99.90
12708;DHT22;6418;50.824;4.718;2022-09-02T05:58:29;16.50;99.90
12708;DHT22;6418;50.824;4.718;2022-09-02T06:00:56;16.50;99.90
12708;DHT22;6418;50.824;4.718;2022-09-02T06:03:23;16.50;99.90
12708;DHT22;6418;50.824;4.718;2022-09-02T06:05:54;16.50;99.90
12708;DHT22;6418;50.824;4.718;2022-09-02T06:08:21;16.50;99.90
12708;DHT22;6418;50.824;4.718;2022-09-02T06:10:49;16.60;99.90
12708;DHT22;6418;50.824;4.718;2022-09-02T06:13:17;16.60;99.90
12708;DHT22;6418;50.824;4.718;2022-09-02T06:15:47;16.60;99.90
12708;DHT22;6418;50.824;4.718;2022-09-02T06:18:15;16.70;99.90
12708;DHT22;6418;50.824;4.718;2022-09-02T06:20:42;16.80;99.90
12708;DHT22;6418;50.824;4.718;2022-09-02T06:23:10;16.80;99.90
12708;DHT22;6418;50.824;4.718;2022-09-02T06:25:37;16.80;99.90
12708;DHT22;6418;50.824;4.718;2022-09-02T06:28:05;16.90;99.90
12708;DHT22;6418;50.824;4.718;2022-09-02T06:30:34;17.00;99.90
12708;DHT22;6418;50.824;4.718;2022-09-02T06:33:03;17.00;99.90
12708;DHT22;6418;50.824;4.718;2022-09-02T06:35:30;17.00;99.90
12708;DHT22;6418;50.824;4.718;2022-09-02T06:38:02;17.10;99.90
12708;DHT22;6418;50.824;4.718;2022-09-02T06:40:29;17.10;99.90
12708;DHT22;6418;50.824;4.718;2022-09-02T06:42:56;17.10;99.90
12708;DHT22;6418;50.824;4.718;2022-09-02T06:45:23;17.20;99.90
12708;DHT22;6418;50.824;4.718;2022-09-02T06:47:52;17.20;99.90
12708;DHT22;6418;50.824;4.718;2022-09-02T06:50:19;17.30;99.90
12708;DHT22;6418;50.824;4.718;2022-09-02T06:52:46;17.30;99.90
12708;DHT22;6418;50.824;4.718;2022-09-02T06:55:13;17.40;99.90
12708;DHT22;6418;50.824;4.718;2022-09-02T06:57:40;17.50;99.90
12708;DHT22;6418;50.824;4.718;2022-09-02T07:00:09;17.50;99.90
12708;DHT22;6418;50.824;4.718;2022-09-02T07:02:37;17.60;99.90
12708;DHT22;6418;50.824;4.718;2022-09-02T07:05:06;17.60;99.90
12708;DHT22;6418;50.824;4.718;2022-09-02T07:07:36;17.70;99.90
12708;DHT22;6418;50.824;4.718;2022-09-02T07:10:06;17.70;99.90
12708;DHT22;6418;50.824;4.718;2022-09-02T07:12:33;17.80;99.90
12708;DHT22;6418;50.824;4.718;2022-09-02T07:15:01;17.80;99.90
12708;DHT22;6418;50.824;4.718;2022-09-02T07:17:28;17.80;99.90
12708;DHT22;6418;50.824;4.718;2022-09-02T07:19:55;17.90;99.90
12708;DHT22;6418;50.824;4.718;2022-09-02T07:22:26;17.90;99.90
12708;DHT22;6418;50.824;4.718;2022-09-02T07:24:53;17.90;99.90
12708;DHT22;6418;50.824;4.718;2022-09-02T07:27:20;18.00;99.90
12708;DHT22;6418;50.824;4.718;2022-09-02T07:29:47;18.00;99.90
12708;DHT22;6418;50.824;4.718;2022-09-02T07:32:15;18.10;99.90
12708;DHT22;6418;50.824;4.718;2022-09-02T07:34:42;18.10;99.90
12708;DHT22;6418;50.824;4.718;2022-09-02T07:37:10;18.20;99.90
12708;DHT22;6418;50.824;4.718;2022-09-02T07:39:38;18.20;99.90
12708;DHT22;6418;50.824;4.718;2022-09-02T07:42:05;18.30;99.90
12708;DHT22;6418;50.824;4.718;2022-09-02T07:44:32;18.40;99.90
12708;DHT22;6418;50.824;4.718;2022-09-02T07:46:59;18.50;99.90
12708;DHT22;6418;50.824;4.718;2022-09-02T07:49:26;18.60;99.90
12708;DHT22;6418;50.824;4.718;2022-09-02T07:51:53;18.60;99.90
12708;DHT22;6418;50.824;4.718;2022-09-02T07:54:23;18.70;99.90
12708;DHT22;6418;50.824;4.718;2022-09-02T07:56:51;18.80;99.90
12708;DHT22;6418;50.824;4.718;2022-09-02T07:59:19;18.90;99.90
12708;DHT22;6418;50.824;4.718;2022-09-02T08:01:47;19.10;99.90
12708;DHT22;6418;50.824;4.718;2022-09-02T08:04:14;19.10;99.90
12708;DHT22;6418;50.824;4.718;2022-09-02T08:06:43;19.20;99.90
12708;DHT22;6418;50.824;4.718;2022-09-02T08:09:10;19.20;99.90
12708;DHT22;6418;50.824;4.718;2022-09-02T08:11:38;19.30;99.90
12708;DHT22;6418;50.824;4.718;2022-09-02T08:14:08;19.40;99.90
12708;DHT22;6418;50.824;4.718;2022-09-02T08:16:36;19.50;99.90
12708;DHT22;6418;50.824;4.718;2022-09-02T08:19:04;19.50;99.90
12708;DHT22;6418;50.824;4.718;2022-09-02T08:21:31;19.60;99.90
12708;DHT22;6418;50.824;4.718;2022-09-02T08:23:58;19.70;99.90
12708;DHT22;6418;50.824;4.718;2022-09-02T08:26:25;19.70;99.90
12708;DHT22;6418;50.824;4.718;2022-09-02T08:28:53;19.90;99.90
12708;DHT22;6418;50.824;4.718;2022-09-02T08:31:21;19.90;99.90
12708;DHT22;6418;50.824;4.718;2022-09-02T08:33:48;20.00;99.90
12708;DHT22;6418;50.824;4.718;2022-09-02T08:36:15;20.10;99.90
12708;DHT22;6418;50.824;4.718;2022-09-02T08:38:42;20.20;99.90
12708;DHT22;6418;50.824;4.718;2022-09-02T08:41:19;20.20;99.90
12708;DHT22;6418;50.824;4.718;2022-09-02T08:43:46;20.30;99.90
12708;DHT22;6418;50.824;4.718;2022-09-02T08:46:15;20.40;99.90
12708;DHT22;6418;50.824;4.718;2022-09-02T08:48:47;20.50;99.90
12708;DHT22;6418;50.824;4.718;2022-09-02T08:51:19;20.50;99.90
12708;DHT22;6418;50.824;4.718;2022-09-02T08:53:50;20.50;99.90
12708;DHT22;6418;50.824;4.718;2022-09-02T08:56:19;20.70;99.90
12708;DHT22;6418;50.824;4.718;2022-09-02T08:58:49;20.80;99.90
12708;DHT22;6418;50.824;4.718;2022-09-02T09:01:24;20.90;99.90
12708;DHT22;6418;50.824;4.718;2022-09-02T09:04:13;20.90;99.90
12708;DHT22;6418;50.824;4.718;2022-09-02T09:06:51;20.90;99.90
12708;DHT22;6418;50.824;4.718;2022-09-02T09:09:29;21.00;99.90
12708;DHT22;6418;50.824;4.718;2022-09-02T09:12:05;21.10;99.90
12708;DHT22;6418;50.824;4.718;2022-09-02T09:14:41;21.20;99.90
12708;DHT22;6418;50.824;4.718;2022-09-02T09:17:18;21.40;99.90
12708;DHT22;6418;50.824;4.718;2022-09-02T09:19:51;21.50;99.90
12708;DHT22;6418;50.824;4.718;2022-09-02T09:22:20;21.60;99.90
12708;DHT22;6418;50.824;4.718;2022-09-02T09:24:49;21.60;99.90
12708;DHT22;6418;50.824;4.718;2022-09-02T09:27:18;21.70;99.90
12708;DHT22;6418;50.824;4.718;2022-09-02T09:29:46;21.80;99.90
12708;DHT22;6418;50.824;4.718;2022-09-02T09:32:20;21.80;99.90
12708;DHT22;6418;50.824;4.718;2022-09-02T09:35:00;21.90;99.90
12708;DHT22;6418;50.824;4.718;2022-09-02T09:37:31;22.00;99.90
12708;DHT22;6418;50.824;4.718;2022-09-02T09:39:59;22.10;99.90
12708;DHT22;6418;50.824;4.718;2022-09-02T09:42:32;22.10;99.90
12708;DHT22;6418;50.824;4.718;2022-09-02T09:44:59;22.30;99.90
12708;DHT22;6418;50.824;4.718;2022-09-02T09:47:26;22.30;99.90
12708;DHT22;6418;50.824;4.718;2022-09-02T09:50:10;22.40;99.90
12708;DHT22;6418;50.824;4.718;2022-09-02T09:52:38;22.40;99.90
12708;DHT22;6418;50.824;4.718;2022-09-02T09:55:11;22.50;99.90
12708;DHT22;6418;50.824;4.718;2022-09-02T09:57:39;22.50;99.90
12708;DHT22;6418;50.824;4.718;2022-09-02T10:02:58;22.70;99.90
12708;DHT22;6418;50.824;4.718;2022-09-02T10:05:31;22.70;99.90
12708;DHT22;6418;50.824;4.718;2022-09-02T10:08:00;22.80;99.90
12708;DHT22;6418;50.824;4.718;2022-09-02T10:10:30;22.80;99.90
12708;DHT22;6418;50.824;4.718;2022-09-02T10:13:00;23.00;99.90
12708;DHT22;6418;50.824;4.718;2022-09-02T10:15:33;23.00;99.90
12708;DHT22;6418;50.824;4.718;2022-09-02T10:18:12;23.10;99.90
12708;DHT22;6418;50.824;4.718;2022-09-02T10:20:51;23.10;99.90
12708;DHT22;6418;50.824;4.718;2022-09-02T10:23:30;23.20;99.90
12708;DHT22;6418;50.824;4.718;2022-09-02T10:26:06;23.20;99.90
12708;DHT22;6418;50.824;4.718;2022-09-02T10:31:30;23.40;99.90
12708;DHT22;6418;50.824;4.718;2022-09-02T10:34:09;23.60;99.90
12708;DHT22;6418;50.824;4.718;2022-09-02T10:36:56;23.80;99.90
12708;DHT22;6418;50.824;4.718;2022-09-02T10:39:35;23.90;99.90
12708;DHT22;6418;50.824;4.718;2022-09-02T10:42:13;24.10;99.90
12708;DHT22;6418;50.824;4.718;2022-09-02T10:44:46;24.30;99.90
12708;DHT22;6418;50.824;4.718;2022-09-02T10:47:25;24.30;99.90
12708;DHT22;6418;50.824;4.718;2022-09-02T10:50:02;24.40;99.90
12708;DHT22;6418;50.824;4.718;2022-09-02T10:52:56;24.40;99.90
12708;DHT22;6418;50.824;4.718;2022-09-02T10:55:34;24.40;99.90
12708;DHT22;6418;50.824;4.718;2022-09-02T10:58:09;24.50;99.90
12708;DHT22;6418;50.824;4.718;2022-09-02T11:00:40;24.50;99.90
12708;DHT22;6418;50.824;4.718;2022-09-02T11:03:16;24.40;99.90
12708;DHT22;6418;50.824;4.718;2022-09-02T11:05:48;24.50;99.90
12708;DHT22;6418;50.824;4.718;2022-09-02T11:08:22;24.50;99.90
12708;DHT22;6418;50.824;4.718;2022-09-02T11:10:57;24.60;99.90
12708;DHT22;6418;50.824;4.718;2022-09-02T11:13:33;24.60;99.90
12708;DHT22;6418;50.824;4.718;2022-09-02T11:16:06;24.60;99.90
12708;DHT22;6418;50.824;4.718;2022-09-02T11:18:42;24.60;99.90
12708;DHT22;6418;50.824;4.718;2022-09-02T11:21:24;24.60;99.90
12708;DHT22;6418;50.824;4.718;2022-09-02T11:23:58;24.70;99.90
12708;DHT22;6418;50.824;4.718;2022-09-02T11:26:28;24.70;99.10
12708;DHT22;6418;50.824;4.718;2022-09-02T11:29:00;24.80;98.70
12708;DHT22;6418;50.824;4.718;2022-09-02T11:31:36;24.80;98.90
12708;DHT22;6418;50.824;4.718;2022-09-02T11:34:13;24.80;97.70
12708;DHT22;6418;50.824;4.718;2022-09-02T11:36:42;24.80;98.40
12708;DHT22;6418;50.824;4.718;2022-09-02T11:39:14;24.90;98.00
12708;DHT22;6418;50.824;4.718;2022-09-02T11:41:53;25.00;96.10
12708;DHT22;6418;50.824;4.718;2022-09-02T11:44:51;25.10;97.70
12708;DHT22;6418;50.824;4.718;2022-09-02T11:47:58;25.20;96.90
12708;DHT22;6418;50.824;4.718;2022-09-02T11:50:50;25.20;96.20
12708;DHT22;6418;50.824;4.718;2022-09-02T11:53:23;25.30;95.20
12708;DHT22;6418;50.824;4.718;2022-09-02T11:55:56;25.40;95.10
12708;DHT22;6418;50.824;4.718;2022-09-02T11:58:33;25.40;96.20
12708;DHT22;6418;50.824;4.718;2022-09-02T12:03:48;25.60;96.30
12708;DHT22;6418;50.824;4.718;2022-09-02T12:06:18;25.70;96.00
12708;DHT22;6418;50.824;4.718;2022-09-02T12:09:01;25.70;96.10
12708;DHT22;6418;50.824;4.718;2022-09-02T12:11:48;25.80;96.00
12708;DHT22;6418;50.824;4.718;2022-09-02T12:17:36;26.00;96.10
12708;DHT22;6418;50.824;4.718;2022-09-02T12:20:05;26.10;94.10
12708;DHT22;6418;50.824;4.718;2022-09-02T12:22:35;26.20;94.80
12708;DHT22;6418;50.824;4.718;2022-09-02T12:27:48;26.30;95.40
12708;DHT22;6418;50.824;4.718;2022-09-02T12:33:28;26.60;94.60
12708;DHT22;6418;50.824;4.718;2022-09-02T12:35:56;26.60;93.20
12708;DHT22;6418;50.824;4.718;2022-09-02T12:38:29;26.70;94.40
12708;DHT22;6418;50.824;4.718;2022-09-02T12:44:03;26.80;94.70
12708;DHT22;6418;50.824;4.718;2022-09-02T12:46:54;26.90;92.70
12708;DHT22;6418;50.824;4.718;2022-09-02T12:49:32;27.00;93.20
12708;DHT22;6418;50.824;4.718;2022-09-02T12:52:03;27.00;92.20
12708;DHT22;6418;50.824;4.718;2022-09-02T12:54:38;27.00;93.00
12708;DHT22;6418;50.824;4.718;2022-09-02T12:57:08;27.00;91.60
12708;DHT22;6418;50.824;4.718;2022-09-02T12:59:38;27.10;93.60
12708;DHT22;6418;50.824;4.718;2022-09-02T13:02:16;27.10;93.30
12708;DHT22;6418;50.824;4.718;2022-09-02T13:04:59;27.20;92.40
12708;DHT22;6418;50.824;4.718;2022-09-02T13:08:05;27.30;92.70
12708;DHT22;6418;50.824;4.718;2022-09-02T13:10:50;27.20;91.10
12708;DHT22;6418;50.824;4.718;2022-09-02T13:13:51;27.10;93.10
12708;DHT22;6418;50.824;4.718;2022-09-02T13:16:36;27.10;92.60
12708;DHT22;6418;50.824;4.718;2022-09-02T13:22:28;27.10;91.50
12708;DHT22;6418;50.824;4.718;2022-09-02T13:28:38;27.30;92.00
12708;DHT22;6418;50.824;4.718;2022-09-02T13:31:21;27.30;90.20
12708;DHT22;6418;50.824;4.718;2022-09-02T13:33:57;27.20;91.20
12708;DHT22;6418;50.824;4.718;2022-09-02T13:36:27;27.30;92.20
12708;DHT22;6418;50.824;4.718;2022-09-02T13:38:55;27.40;92.50
12708;DHT22;6418;50.824;4.718;2022-09-02T13:41:29;27.50;91.50
12708;DHT22;6418;50.824;4.718;2022-09-02T13:44:10;27.60;92.20
12708;DHT22;6418;50.824;4.718;2022-09-02T13:46:45;27.70;92.30
12708;DHT22;6418;50.824;4.718;2022-09-02T13:49:26;27.80;90.80
12708;DHT22;6418;50.824;4.718;2022-09-02T13:51:55;27.70;91.60
12708;DHT22;6418;50.824;4.718;2022-09-02T13:54:27;27.80;91.30
12708;DHT22;6418;50.824;4.718;2022-09-02T13:56:56;27.80;91.90
12708;DHT22;6418;50.824;4.718;2022-09-02T13:59:31;27.80;90.70
12708;DHT22;6418;50.824;4.718;2022-09-02T14:01:58;27.90;91.60
12708;DHT22;6418;50.824;4.718;2022-09-02T14:04:26;27.90;91.60
12708;DHT22;6418;50.824;4.718;2022-09-02T14:06:54;28.00;90.80
12708;DHT22;6418;50.824;4.718;2022-09-02T14:09:24;28.00;89.00
12708;DHT22;6418;50.824;4.718;2022-09-02T14:11:53;28.00;91.50
12708;DHT22;6418;50.824;4.718;2022-09-02T14:14:22;28.10;91.30
12708;DHT22;6418;50.824;4.718;2022-09-02T14:16:50;28.10;92.30
12708;DHT22;6418;50.824;4.718;2022-09-02T14:19:25;28.20;90.60
12708;DHT22;6418;50.824;4.718;2022-09-02T14:21:54;28.20;90.60
12708;DHT22;6418;50.824;4.718;2022-09-02T14:24:23;28.20;89.40
12708;DHT22;6418;50.824;4.718;2022-09-02T14:26:52;28.20;91.30
12708;DHT22;6418;50.824;4.718;2022-09-02T14:29:20;28.30;91.80
12708;DHT22;6418;50.824;4.718;2022-09-02T14:32:03;28.40;91.90
12708;DHT22;6418;50.824;4.718;2022-09-02T14:34:34;28.40;89.70
12708;DHT22;6418;50.824;4.718;2022-09-02T14:37:17;28.40;87.80
12708;DHT22;6418;50.824;4.718;2022-09-02T14:39:53;28.50;89.30
12708;DHT22;6418;50.824;4.718;2022-09-02T14:42:27;28.60;91.80
12708;DHT22;6418;50.824;4.718;2022-09-02T14:44:54;28.70;91.70
12708;DHT22;6418;50.824;4.718;2022-09-02T14:47:23;28.80;91.80
12708;DHT22;6418;50.824;4.718;2022-09-02T14:49:54;28.90;91.70
12708;DHT22;6418;50.824;4.718;2022-09-02T14:52:24;29.00;91.30
12708;DHT22;6418;50.824;4.718;2022-09-02T14:54:53;29.10;91.00
12708;DHT22;6418;50.824;4.718;2022-09-02T14:57:23;29.30;90.70
12708;DHT22;6418;50.824;4.718;2022-09-02T14:59:52;29.50;92.40
12708;DHT22;6418;50.824;4.718;2022-09-02T15:02:28;29.90;91.70
12708;DHT22;6418;50.824;4.718;2022-09-02T15:04:59;30.40;90.00
12708;DHT22;6418;50.824;4.718;2022-09-02T15:07:27;30.80;86.50
12708;DHT22;6418;50.824;4.718;2022-09-02T15:09:54;31.20;91.00
12708;DHT22;6418;50.824;4.718;2022-09-02T15:12:23;31.50;90.50
12708;DHT22;6418;50.824;4.718;2022-09-02T15:14:51;31.90;90.10
12708;DHT22;6418;50.824;4.718;2022-09-02T15:17:19;32.20;88.20
12708;DHT22;6418;50.824;4.718;2022-09-02T15:19:46;32.60;89.10
12708;DHT22;6418;50.824;4.718;2022-09-02T15:22:16;33.00;90.50
12708;DHT22;6418;50.824;4.718;2022-09-02T15:24:43;33.50;90.60
12708;DHT22;6418;50.824;4.718;2022-09-02T15:27:11;33.90;85.40
12708;DHT22;6418;50.824;4.718;2022-09-02T15:29:38;34.00;81.70
12708;DHT22;6418;50.824;4.718;2022-09-02T15:32:05;34.20;86.80
12708;DHT22;6418;50.824;4.718;2022-09-02T15:34:33;34.60;80.50
12708;DHT22;6418;50.824;4.718;2022-09-02T15:37:00;34.50;82.30
12708;DHT22;6418;50.824;4.718;2022-09-02T15:39:28;34.30;79.70
12708;DHT22;6418;50.824;4.718;2022-09-02T15:41:55;33.90;83.00
12708;DHT22;6418;50.824;4.718;2022-09-02T15:44:23;33.40;79.30
12708;DHT22;6418;50.824;4.718;2022-09-02T15:46:51;33.00;81.70
12708;DHT22;6418;50.824;4.718;2022-09-02T15:49:19;33.00;80.80
12708;DHT22;6418;50.824;4.718;2022-09-02T15:51:47;33.10;81.10
12708;DHT22;6418;50.824;4.718;2022-09-02T15:54:15;33.50;87.70
12708;DHT22;6418;50.824;4.718;2022-09-02T15:56:46;33.70;84.40
12708;DHT22;6418;50.824;4.718;2022-09-02T15:59:14;33.90;83.20
12708;DHT22;6418;50.824;4.718;2022-09-02T16:01:43;33.90;85.00
12708;DHT22;6418;50.824;4.718;2022-09-02T16:04:12;33.80;85.90
12708;DHT22;6418;50.824;4.718;2022-09-02T16:06:41;33.60;87.60
12708;DHT22;6418;50.824;4.718;2022-09-02T16:09:10;33.40;87.00
12708;DHT22;6418;50.824;4.718;2022-09-02T16:11:38;33.10;81.10
12708;DHT22;6418;50.824;4.718;2022-09-02T16:14:07;32.70;84.30
12708;DHT22;6418;50.824;4.718;2022-09-02T16:16:34;32.60;81.10
12708;DHT22;6418;50.824;4.718;2022-09-02T16:19:02;32.40;83.60
12708;DHT22;6418;50.824;4.718;2022-09-02T16:21:29;32.00;81.00
12708;DHT22;6418;50.824;4.718;2022-09-02T16:23:56;31.90;82.70
12708;DHT22;6418;50.824;4.718;2022-09-02T16:26:25;31.60;82.20
12708;DHT22;6418;50.824;4.718;2022-09-02T16:28:53;31.60;84.00
12708;DHT22;6418;50.824;4.718;2022-09-02T16:31:24;31.50;82.80
12708;DHT22;6418;50.824;4.718;2022-09-02T16:33:52;31.50;82.90